createdAt,value
2023-05-01T00:01:47.625Z,11.63
2023-05-01T00:04:15.062Z,11.63
2023-05-01T00:06:42.489Z,11.64
2023-05-01T00:09:09.789Z,11.64
2023-05-01T00:11:37.810Z,11.64
2023-05-01T00:14:05.244Z,11.64
2023-05-01T00:16:32.611Z,11.62
2023-05-01T00:19:00.013Z,11.61
2023-05-01T00:21:29.022Z,11.59
2023-05-01T00:23:56.129Z,11.56
2023-05-01T00:26:23.323Z,11.55
2023-05-01T00:28:50.885Z,11.54
2023-05-01T00:31:18.612Z,11.52
2023-05-01T00:33:46.413Z,11.50
2023-05-01T00:36:13.869Z,11.48
2023-05-01T00:38:41.016Z,11.44
2023-05-01T00:41:08.528Z,11.38
2023-05-01T00:43:36.492Z,11.37
2023-05-01T00:46:04.406Z,11.33
2023-05-01T00:48:31.576Z,11.30
2023-05-01T00:50:59.139Z,11.28
2023-05-01T00:53:26.682Z,11.26
2023-05-01T00:55:55.062Z,11.25
2023-05-01T00:58:22.215Z,11.24
2023-05-01T01:00:49.864Z,11.23
2023-05-01T01:03:16.951Z,11.22
2023-05-01T01:05:53.483Z,11.21
2023-05-01T01:08:24.055Z,11.21
2023-05-01T01:11:08.883Z,11.21
2023-05-01T01:13:38.494Z,11.20
2023-05-01T01:16:24.283Z,11.19
2023-05-01T01:18:56.646Z,11.19
2023-05-01T01:21:28.402Z,11.20
2023-05-01T01:24:11.327Z,11.23
2023-05-01T01:26:52.536Z,11.25
2023-05-01T01:29:29.176Z,11.25
2023-05-01T01:32:02.408Z,11.28
2023-05-01T01:34:49.720Z,11.33
2023-05-01T01:37:20.842Z,11.40
2023-05-01T01:39:58.300Z,11.41
2023-05-01T01:42:27.234Z,11.40
2023-05-01T01:45:00.325Z,11.32
2023-05-01T01:47:32.058Z,11.29
2023-05-01T01:50:00.554Z,11.27
2023-05-01T01:52:28.113Z,11.24
2023-05-01T01:55:05.509Z,11.21
2023-05-01T01:57:33.170Z,11.17
2023-05-01T02:00:00.235Z,11.13
2023-05-01T02:02:28.004Z,11.10
2023-05-01T02:04:57.430Z,11.05
2023-05-01T02:07:24.585Z,11.02
2023-05-01T02:09:51.898Z,11.00
2023-05-01T02:12:19.071Z,10.99
2023-05-01T02:14:46.312Z,11.00
2023-05-01T02:17:14.062Z,11.01
2023-05-01T02:19:41.046Z,11.01
2023-05-01T02:22:08.253Z,11.02
2023-05-01T02:24:35.805Z,11.03
2023-05-01T02:27:06.711Z,11.06
2023-05-01T02:29:34.464Z,11.08
2023-05-01T02:32:01.853Z,11.10
2023-05-01T02:34:29.052Z,11.11
2023-05-01T02:36:57.017Z,11.14
2023-05-01T02:39:24.257Z,11.16
2023-05-01T02:41:51.496Z,11.21
2023-05-01T02:44:18.505Z,11.18
2023-05-01T02:46:45.941Z,11.25
2023-05-01T02:49:13.609Z,11.28
2023-05-01T02:51:41.320Z,11.29
2023-05-01T02:54:08.508Z,11.29
2023-05-01T02:56:36.572Z,11.31
2023-05-01T02:59:03.616Z,11.33
2023-05-01T03:01:31.121Z,11.35
2023-05-01T03:03:58.543Z,11.39
2023-05-01T03:06:27.586Z,11.44
2023-05-01T03:08:55.259Z,11.49
2023-05-01T03:11:22.523Z,11.55
2023-05-01T03:13:49.559Z,11.59
2023-05-01T03:16:16.726Z,11.64
2023-05-01T03:18:43.922Z,11.69
2023-05-01T03:21:13.321Z,11.76
2023-05-01T03:23:40.671Z,11.84
2023-05-01T03:26:07.932Z,11.88
2023-05-01T03:28:35.137Z,11.91
2023-05-01T03:31:02.489Z,11.96
2023-05-01T03:33:30.442Z,12.01
2023-05-01T03:36:05.774Z,12.07
2023-05-01T03:38:33.610Z,12.13
2023-05-01T03:41:09.937Z,12.16
2023-05-01T03:44:04.050Z,12.16
2023-05-01T03:46:42.546Z,12.15
2023-05-01T03:49:11.714Z,12.15
2023-05-01T03:51:43.978Z,12.16
2023-05-01T03:54:11.078Z,12.17
2023-05-01T03:56:58.861Z,12.21
2023-05-01T03:59:26.324Z,12.24
2023-05-01T04:01:53.802Z,12.32
2023-05-01T04:04:21.267Z,12.35
2023-05-01T04:06:53.648Z,12.38
2023-05-01T04:09:21.193Z,12.41
2023-05-01T04:11:48.277Z,12.44
2023-05-01T04:14:16.696Z,12.48
2023-05-01T04:16:43.844Z,12.54
2023-05-01T04:19:10.940Z,12.61
2023-05-01T04:21:41.653Z,12.69
2023-05-01T04:24:09.401Z,12.80
2023-05-01T04:26:36.647Z,12.91
2023-05-01T04:29:03.798Z,13.08
2023-05-01T04:31:31.320Z,13.22
2023-05-01T04:33:58.910Z,13.33
2023-05-01T04:36:25.985Z,13.47
2023-05-01T04:38:53.114Z,13.58
2023-05-01T04:41:20.153Z,13.67
2023-05-01T04:43:47.452Z,13.77
2023-05-01T04:46:17.654Z,13.87
2023-05-01T04:48:44.782Z,13.97
2023-05-01T04:51:11.930Z,14.14
2023-05-01T04:53:39.295Z,14.26
2023-05-01T04:56:11.129Z,14.39
2023-05-01T04:58:38.925Z,14.51
2023-05-01T05:01:09.310Z,14.61
2023-05-01T05:03:36.607Z,14.69
2023-05-01T05:06:04.992Z,14.71
2023-05-01T05:08:32.627Z,14.70
2023-05-01T05:11:09.102Z,14.68
2023-05-01T05:13:54.840Z,14.60
2023-05-01T05:16:22.069Z,14.51
2023-05-01T05:18:49.232Z,14.45
2023-05-01T05:21:16.973Z,14.48
2023-05-01T05:23:48.223Z,14.50
2023-05-01T05:26:15.362Z,14.52
2023-05-01T05:28:42.502Z,14.57
2023-05-01T05:31:09.750Z,14.56
2023-05-01T05:33:37.082Z,14.59
2023-05-01T05:36:05.047Z,14.64
2023-05-01T05:38:36.212Z,14.68
2023-05-01T05:41:04.089Z,14.74
2023-05-01T05:43:31.228Z,14.78
2023-05-01T05:45:59.105Z,14.77
2023-05-01T05:48:26.592Z,14.72
2023-05-01T05:50:54.111Z,14.65
2023-05-01T05:53:22.038Z,14.61
2023-05-01T05:55:50.705Z,14.57
2023-05-01T05:58:20.355Z,14.54
2023-05-01T06:00:48.859Z,14.49
2023-05-01T06:03:16.630Z,14.45
2023-05-01T06:05:45.376Z,14.42
2023-05-01T06:08:13.000Z,14.41
2023-05-01T06:10:41.893Z,14.37
2023-05-01T06:13:13.811Z,14.32
2023-05-01T06:15:45.373Z,14.24
2023-05-01T06:18:12.805Z,14.14
2023-05-01T06:20:40.373Z,14.05
2023-05-01T06:23:09.815Z,13.97
2023-05-01T06:25:50.166Z,13.93
2023-05-01T06:28:17.324Z,13.91
2023-05-01T06:30:44.459Z,13.92
2023-05-01T06:33:12.141Z,13.96
2023-05-01T06:35:40.222Z,14.00
2023-05-01T06:38:07.372Z,14.02
2023-05-01T06:40:35.509Z,14.04
2023-05-01T06:43:03.401Z,14.05
2023-05-01T06:45:30.536Z,14.03
2023-05-01T06:47:57.718Z,14.01
2023-05-01T06:50:24.831Z,14.02
2023-05-01T06:52:52.317Z,14.05
2023-05-01T06:55:19.440Z,14.13
2023-05-01T06:57:46.683Z,14.33
2023-05-01T07:00:15.278Z,14.67
2023-05-01T07:02:42.673Z,15.16
2023-05-01T07:05:09.997Z,15.72
2023-05-01T07:07:38.898Z,16.35
2023-05-01T07:10:09.752Z,17.09
2023-05-01T07:12:36.859Z,17.83
2023-05-01T07:15:04.434Z,18.43
2023-05-01T07:17:31.598Z,18.82
2023-05-01T07:19:59.165Z,19.04
2023-05-01T07:22:26.380Z,19.11
2023-05-01T07:24:53.588Z,19.08
2023-05-01T07:27:21.860Z,18.90
2023-05-01T07:29:50.748Z,18.68
2023-05-01T07:32:17.999Z,18.69
2023-05-01T07:34:45.212Z,18.92
2023-05-01T07:37:12.350Z,19.22
2023-05-01T07:39:39.840Z,19.54
2023-05-01T07:42:07.060Z,19.74
2023-05-01T07:44:34.312Z,19.51
2023-05-01T07:47:05.909Z,19.18
2023-05-01T07:49:38.367Z,18.88
2023-05-01T07:52:08.705Z,18.56
2023-05-01T07:54:35.952Z,18.28
2023-05-01T07:57:04.627Z,17.99
2023-05-01T07:59:31.773Z,17.74
2023-05-01T08:01:58.949Z,17.62
2023-05-01T08:04:26.149Z,17.64
2023-05-01T08:06:53.498Z,17.77
2023-05-01T08:09:20.836Z,17.89
2023-05-01T08:11:47.856Z,17.97
2023-05-01T08:14:17.721Z,17.99
2023-05-01T08:16:44.879Z,18.03
2023-05-01T08:19:12.116Z,18.04
2023-05-01T08:21:39.524Z,18.02
2023-05-01T08:24:09.214Z,18.03
2023-05-01T08:26:36.231Z,18.11
2023-05-01T08:29:03.305Z,18.18
2023-05-01T08:31:31.021Z,18.27
2023-05-01T08:33:58.101Z,18.41
2023-05-01T08:36:25.315Z,18.54
2023-05-01T08:38:52.348Z,18.68
2023-05-01T08:41:21.443Z,18.76
2023-05-01T08:43:49.084Z,18.81
2023-05-01T08:46:24.764Z,18.84
2023-05-01T08:48:53.172Z,18.88
2023-05-01T08:51:23.186Z,18.89
2023-05-01T08:53:53.124Z,18.91
2023-05-01T08:56:21.655Z,18.98
2023-05-01T08:58:48.770Z,19.07
2023-05-01T09:01:16.519Z,19.18
2023-05-01T09:03:44.654Z,19.25
2023-05-01T09:06:12.098Z,19.29
2023-05-01T09:08:39.601Z,19.32
2023-05-01T09:11:06.652Z,19.33
2023-05-01T09:13:33.690Z,19.35
2023-05-01T09:16:01.299Z,19.41
2023-05-01T09:18:28.868Z,19.46
2023-05-01T09:20:56.524Z,19.48
2023-05-01T09:23:23.656Z,19.46
2023-05-01T09:25:52.053Z,19.44
2023-05-01T09:28:19.207Z,19.57
2023-05-01T09:30:46.820Z,19.78
2023-05-01T09:33:15.073Z,20.05
2023-05-01T09:35:53.006Z,20.34
2023-05-01T09:38:23.998Z,20.60
2023-05-01T09:40:51.693Z,20.81
2023-05-01T09:43:28.830Z,21.10
2023-05-01T09:46:09.808Z,21.51
2023-05-01T09:48:37.751Z,21.86
2023-05-01T09:51:21.118Z,22.13
2023-05-01T09:53:48.357Z,22.38
2023-05-01T09:56:15.456Z,22.59
2023-05-01T09:58:42.536Z,22.79
2023-05-01T10:01:09.698Z,22.90
2023-05-01T10:03:37.605Z,22.87
2023-05-01T10:06:05.216Z,22.86
2023-05-01T10:16:29.033Z,22.83
2023-05-01T10:19:00.689Z,22.88
2023-05-01T10:21:29.352Z,22.94
2023-05-01T10:23:57.350Z,22.93
2023-05-01T10:26:26.440Z,22.82
2023-05-01T10:28:53.774Z,22.65
2023-05-01T10:31:21.132Z,22.46
2023-05-01T10:33:48.484Z,22.25
2023-05-01T10:36:40.533Z,21.98
2023-05-01T10:39:07.564Z,21.65
2023-05-01T10:42:06.363Z,21.36
2023-05-01T10:44:35.409Z,20.90
2023-05-01T10:47:43.091Z,20.45
2023-05-01T10:50:16.161Z,19.92
2023-05-01T10:53:18.205Z,19.52
2023-05-01T10:55:46.427Z,19.14
2023-05-01T10:58:14.510Z,18.76
2023-05-01T11:00:41.899Z,18.37
2023-05-01T11:03:21.253Z,18.03
2023-05-01T11:06:01.184Z,17.73
2023-05-01T11:08:35.455Z,17.51
2023-05-01T11:11:24.365Z,17.40
2023-05-01T11:14:08.705Z,17.35
2023-05-01T11:16:46.187Z,17.40
2023-05-01T11:19:22.788Z,17.67
2023-05-01T11:21:51.062Z,17.97
2023-05-01T11:24:19.121Z,18.14
2023-05-01T11:26:47.531Z,18.20
2023-05-01T11:29:14.624Z,18.06
2023-05-01T11:31:41.782Z,17.93
2023-05-01T11:34:09.064Z,17.78
2023-05-01T11:36:52.255Z,17.57
2023-05-01T11:39:19.940Z,17.35
2023-05-01T11:41:47.243Z,17.20
2023-05-01T11:44:18.216Z,17.12
2023-05-01T11:46:45.553Z,17.06
2023-05-01T11:49:12.674Z,16.98
2023-05-01T11:51:39.803Z,16.93
2023-05-01T11:54:08.659Z,16.97
2023-05-01T11:56:37.533Z,17.06
2023-05-01T11:59:17.601Z,17.15
2023-05-01T12:01:45.903Z,17.24
2023-05-01T12:04:14.143Z,17.32
2023-05-01T12:06:46.203Z,17.38
2023-05-01T12:09:23.335Z,17.45
2023-05-01T12:11:52.918Z,17.55
2023-05-01T12:14:21.815Z,17.59
2023-05-01T12:16:49.639Z,17.63
2023-05-01T12:19:17.691Z,17.71
2023-05-01T12:21:44.824Z,17.78
2023-05-01T12:24:17.041Z,17.81
2023-05-01T12:26:44.931Z,17.78
2023-05-01T12:29:12.242Z,17.69
2023-05-01T12:31:49.994Z,17.57
2023-05-01T12:34:17.512Z,17.50
2023-05-01T12:36:53.218Z,17.57
2023-05-01T12:39:20.365Z,17.67
2023-05-01T12:41:51.116Z,17.65
2023-05-01T12:44:25.154Z,17.54
2023-05-01T12:47:08.439Z,17.44
2023-05-01T12:49:39.375Z,17.30
2023-05-01T12:52:07.842Z,17.13
2023-05-01T12:54:38.890Z,16.97
2023-05-01T12:57:16.004Z,16.85
2023-05-01T12:59:46.648Z,16.71
2023-05-01T13:02:16.354Z,16.53
2023-05-01T13:04:44.103Z,16.37
2023-05-01T13:07:18.888Z,16.21
2023-05-01T13:09:53.489Z,16.09
2023-05-01T13:12:20.826Z,16.03
2023-05-01T13:14:48.352Z,15.96
2023-05-01T13:17:23.138Z,15.92
2023-05-01T13:19:57.421Z,15.84
2023-05-01T13:22:38.385Z,15.71
2023-05-01T13:25:17.548Z,15.61
2023-05-01T13:27:50.017Z,15.53
2023-05-01T13:30:21.206Z,15.52
2023-05-01T13:32:49.750Z,15.60
2023-05-01T13:35:24.648Z,15.70
2023-05-01T13:37:52.114Z,15.70
2023-05-01T13:40:19.622Z,15.60
2023-05-01T13:42:47.011Z,15.51
2023-05-01T13:45:15.292Z,15.43
2023-05-01T13:47:42.471Z,15.31
2023-05-01T13:50:11.025Z,15.26
2023-05-01T13:52:42.656Z,15.20
2023-05-01T13:55:10.529Z,15.12
2023-05-01T13:57:39.049Z,15.06
2023-05-01T14:00:09.296Z,15.02
2023-05-01T14:02:44.049Z,15.02
2023-05-01T14:05:11.946Z,14.97
2023-05-01T14:07:49.856Z,14.92
2023-05-01T14:10:16.993Z,14.80
2023-05-01T14:12:44.135Z,14.71
2023-05-01T14:15:12.217Z,14.64
2023-05-01T14:17:39.364Z,14.57
2023-05-01T14:20:07.272Z,14.50
2023-05-01T14:22:53.640Z,14.38
2023-05-01T14:25:28.627Z,14.18
2023-05-01T14:27:56.534Z,14.06
2023-05-01T14:30:27.216Z,14.00
2023-05-01T14:32:54.940Z,13.98
2023-05-01T14:35:23.447Z,13.93
2023-05-01T14:37:50.891Z,13.84
2023-05-01T14:40:26.960Z,13.70
2023-05-01T14:42:55.299Z,13.55
2023-05-01T14:45:22.461Z,13.42
2023-05-01T14:47:49.992Z,13.29
2023-05-01T14:50:24.013Z,13.21
2023-05-01T14:52:55.169Z,13.17
2023-05-01T14:55:28.408Z,13.13
2023-05-01T14:57:56.031Z,13.10
2023-05-01T15:00:23.998Z,13.05
2023-05-01T15:02:51.299Z,12.97
2023-05-01T15:05:18.509Z,12.84
2023-05-01T15:07:46.211Z,12.71
2023-05-01T15:10:13.421Z,12.62
2023-05-01T15:12:40.576Z,12.58
2023-05-01T15:15:09.508Z,12.51
2023-05-01T15:17:36.973Z,12.44
2023-05-01T15:20:04.443Z,12.37
2023-05-01T15:22:31.630Z,12.33
2023-05-01T15:24:59.031Z,12.30
2023-05-01T15:27:26.438Z,12.27
2023-05-01T15:29:54.146Z,12.22
2023-05-01T15:32:21.480Z,12.17
2023-05-01T15:34:50.348Z,12.12
2023-05-01T15:37:17.636Z,12.10
2023-05-01T15:39:44.606Z,12.10
2023-05-01T15:42:11.703Z,12.09
2023-05-01T15:44:39.873Z,12.06
2023-05-01T15:47:07.205Z,12.04
2023-05-01T15:49:34.462Z,12.03
2023-05-01T15:52:01.588Z,12.02
2023-05-01T15:54:28.694Z,12.04
2023-05-01T15:56:55.833Z,12.05
2023-05-01T15:59:22.967Z,12.06
2023-05-01T16:01:50.033Z,12.07
2023-05-01T16:04:17.436Z,12.07
2023-05-01T16:06:44.673Z,12.08
2023-05-01T16:09:13.007Z,12.06
2023-05-01T16:11:40.326Z,12.05
2023-05-01T16:14:09.259Z,12.03
2023-05-01T16:16:36.317Z,11.98
2023-05-01T16:19:03.342Z,11.94
2023-05-01T16:21:30.999Z,11.91
2023-05-01T16:23:58.223Z,11.88
2023-05-01T16:26:28.145Z,11.86
2023-05-01T16:29:05.865Z,11.83
2023-05-01T16:31:39.095Z,11.81
2023-05-01T16:34:07.252Z,11.79
2023-05-01T16:36:37.966Z,11.75
2023-05-01T16:39:05.523Z,11.71
2023-05-01T16:41:35.096Z,11.65
2023-05-01T16:44:02.177Z,11.58
2023-05-01T16:46:30.311Z,11.52
2023-05-01T16:48:57.456Z,11.48
2023-05-01T16:51:24.571Z,11.44
2023-05-01T16:53:51.716Z,11.38
2023-05-01T16:56:18.844Z,11.34
2023-05-01T16:58:46.609Z,11.32
2023-05-01T17:01:13.812Z,11.32
2023-05-01T17:03:40.927Z,11.33
2023-05-01T17:06:08.169Z,11.30
2023-05-01T17:08:35.276Z,11.27
2023-05-01T17:11:03.167Z,11.25
2023-05-01T17:13:30.258Z,11.19
2023-05-01T17:15:57.428Z,11.15
2023-05-01T17:18:24.499Z,11.11
2023-05-01T17:20:52.391Z,11.07
2023-05-01T17:23:19.441Z,11.05
2023-05-01T17:25:46.665Z,11.02
2023-05-01T17:28:13.851Z,11.01
2023-05-01T17:30:41.155Z,10.99
2023-05-01T17:33:08.279Z,10.98
2023-05-01T17:35:35.527Z,10.95
2023-05-01T17:38:02.591Z,10.94
2023-05-01T17:40:29.700Z,10.95
2023-05-01T17:42:56.704Z,10.94
2023-05-01T17:45:23.979Z,10.92
2023-05-01T17:47:53.016Z,10.92
2023-05-01T17:50:20.316Z,10.91
2023-05-01T17:52:47.726Z,10.91
2023-05-01T17:55:17.775Z,10.90
2023-05-01T17:57:45.964Z,10.90
2023-05-01T18:00:13.658Z,10.88
2023-05-01T18:02:45.522Z,10.87
2023-05-01T18:05:13.350Z,10.86
2023-05-01T18:07:41.300Z,10.83
2023-05-01T18:10:09.575Z,10.80
2023-05-01T18:12:36.700Z,10.77
2023-05-01T18:15:04.005Z,10.74
2023-05-01T18:17:31.119Z,10.71
2023-05-01T18:19:59.339Z,10.69
2023-05-01T18:22:27.011Z,10.66
2023-05-01T18:24:56.380Z,10.62
2023-05-01T18:27:23.565Z,10.58
2023-05-01T18:29:50.715Z,10.55
2023-05-01T18:32:17.865Z,10.52
2023-05-01T18:34:46.295Z,10.50
2023-05-01T18:37:13.404Z,10.47
2023-05-01T18:39:40.869Z,10.45
2023-05-01T18:42:08.828Z,10.44
2023-05-01T18:44:35.975Z,10.42
2023-05-01T18:47:03.198Z,10.41
2023-05-01T18:49:30.375Z,10.41
2023-05-01T18:51:57.358Z,10.40
2023-05-01T18:54:24.545Z,10.39
2023-05-01T18:56:51.657Z,10.39
2023-05-01T18:59:18.704Z,10.39
2023-05-01T19:01:45.805Z,10.39
2023-05-01T19:04:12.864Z,10.38
2023-05-01T19:06:41.094Z,10.39
2023-05-01T19:09:08.392Z,10.38
2023-05-01T19:11:35.851Z,10.37
2023-05-01T19:14:03.793Z,10.37
2023-05-01T19:16:31.345Z,10.37
2023-05-01T19:18:58.972Z,10.37
2023-05-01T19:21:26.409Z,10.36
2023-05-01T19:23:53.536Z,10.36
2023-05-01T19:26:21.202Z,10.36
2023-05-01T19:28:48.249Z,10.36
2023-05-01T19:31:16.579Z,10.35
2023-05-01T19:33:43.677Z,10.33
2023-05-01T19:36:10.725Z,10.33
2023-05-01T19:38:37.935Z,10.32
2023-05-01T19:41:05.264Z,10.30
2023-05-01T19:43:32.705Z,10.29
2023-05-01T19:45:59.791Z,10.27
2023-05-01T19:48:27.192Z,10.26
2023-05-01T19:50:54.548Z,10.26
2023-05-01T19:53:21.746Z,10.24
2023-05-01T19:55:48.860Z,10.21
2023-05-01T19:58:16.000Z,10.19
2023-05-01T20:00:43.055Z,10.17
2023-05-01T20:03:11.510Z,10.13
2023-05-01T20:05:39.297Z,10.08
2023-05-01T20:08:06.442Z,10.01
2023-05-01T20:10:33.605Z,9.96
2023-05-01T20:13:00.863Z,9.89
2023-05-01T20:15:28.509Z,9.85
2023-05-01T20:17:55.723Z,9.78
2023-05-01T20:20:22.802Z,9.71
2023-05-01T20:22:51.714Z,9.67
2023-05-01T20:25:18.866Z,9.62
2023-05-01T20:27:45.895Z,9.59
2023-05-01T20:30:13.456Z,9.56
2023-05-01T20:32:44.319Z,9.52
2023-05-01T20:35:11.954Z,9.49
2023-05-01T20:37:39.421Z,9.46
2023-05-01T20:40:07.948Z,9.43
2023-05-01T20:42:34.970Z,9.41
2023-05-01T20:45:02.090Z,9.41
2023-05-01T20:47:29.818Z,9.41
2023-05-01T20:49:57.511Z,9.41
2023-05-01T20:52:25.634Z,9.44
2023-05-01T20:54:52.733Z,9.46
2023-05-01T20:57:19.885Z,9.49
2023-05-01T20:59:48.197Z,9.53
2023-05-01T21:02:16.705Z,9.56
2023-05-01T21:04:44.077Z,9.60
2023-05-01T21:07:11.939Z,9.67
2023-05-01T21:09:43.924Z,9.72
2023-05-01T21:12:10.938Z,9.80
2023-05-01T21:14:41.536Z,9.85
2023-05-01T21:17:08.831Z,9.90
2023-05-01T21:19:42.171Z,9.93
2023-05-01T21:22:17.478Z,9.96
2023-05-01T21:24:45.407Z,9.97
2023-05-01T21:27:12.597Z,9.99
2023-05-01T21:29:40.570Z,9.99
2023-05-01T21:32:08.463Z,10.00
2023-05-01T21:34:35.945Z,10.00
2023-05-01T21:37:03.436Z,10.01
2023-05-01T21:39:31.245Z,10.01
2023-05-01T21:41:58.616Z,10.01
2023-05-01T21:44:29.703Z,9.98
2023-05-01T21:46:57.964Z,9.96
2023-05-01T21:49:27.010Z,9.95
2023-05-01T21:51:54.640Z,9.92
2023-05-01T21:54:21.833Z,9.90
2023-05-01T21:56:48.933Z,9.86
2023-05-01T21:59:16.292Z,9.83
2023-05-01T22:01:44.983Z,9.78
2023-05-01T22:04:17.071Z,9.74
2023-05-01T22:06:44.326Z,9.68
2023-05-01T22:09:11.540Z,9.63
2023-05-01T22:11:38.701Z,9.57
2023-05-01T22:14:05.844Z,9.49
2023-05-01T22:16:33.272Z,9.43
2023-05-01T22:19:00.681Z,9.36
2023-05-01T22:21:27.977Z,9.30
2023-05-01T22:23:55.578Z,9.23
2023-05-01T22:26:22.716Z,9.16
2023-05-01T22:28:50.148Z,9.10
2023-05-01T22:31:17.376Z,9.03
2023-05-01T22:33:44.611Z,8.96
2023-05-01T22:36:11.787Z,8.91
2023-05-01T22:38:38.912Z,8.85
2023-05-01T22:41:06.251Z,8.80
2023-05-01T22:43:34.708Z,8.75
2023-05-01T22:46:01.710Z,8.72
2023-05-01T22:48:28.911Z,8.68
2023-05-01T22:50:55.960Z,8.64
2023-05-01T22:53:23.028Z,8.61
2023-05-01T22:55:50.107Z,8.58
2023-05-01T22:58:17.203Z,8.53
2023-05-01T23:00:45.368Z,8.48
2023-05-01T23:03:12.623Z,8.41
2023-05-01T23:05:39.855Z,8.36
2023-05-01T23:08:07.177Z,8.29
2023-05-01T23:10:34.312Z,8.25
2023-05-01T23:13:01.649Z,8.20
2023-05-01T23:15:28.713Z,8.17
2023-05-01T23:17:56.296Z,8.16
2023-05-01T23:20:24.228Z,8.16
2023-05-01T23:22:51.589Z,8.14
2023-05-01T23:25:23.247Z,8.12
2023-05-01T23:27:52.118Z,8.13
2023-05-01T23:30:22.844Z,8.12
2023-05-01T23:32:50.070Z,8.13
2023-05-01T23:35:20.584Z,8.12
2023-05-01T23:37:47.866Z,8.14
2023-05-01T23:40:14.950Z,8.17
2023-05-01T23:42:41.996Z,8.19
2023-05-01T23:45:09.754Z,8.20
2023-05-01T23:47:37.703Z,8.21
2023-05-01T23:50:06.009Z,8.19
2023-05-01T23:52:33.137Z,8.20
2023-05-01T23:55:00.183Z,8.21
2023-05-01T23:57:27.335Z,8.19
2023-05-01T23:59:54.632Z,8.20
